sensor_id;sensor_type;location;lat;lon;timestamp;pressure;altitude;pressure_sealevel;temperature;humidity
7586;BME280;12459;42.646;23.292;2024-01-06T00:09:23;93481.41;;;7.97;83.00
7586;BME280;12459;42.646;23.292;2024-01-06T00:24:25;93141.56;;;5.64;79.65
7586;BME280;12459;42.646;23.292;2024-01-06T00:39:27;93517.56;;;8.12;78.50
7586;BME280;12459;42.646;23.292;2024-01-06T00:54:29;93363.31;;;7.02;78.26
7586;BME280;12459;42.646;23.292;2024-01-06T01:09:31;93492.38;;;8.13;76.52
7586;BME280;12459;42.646;23.292;2024-01-06T01:24:33;93294.88;;;6.78;79.24
7586;BME280;12459;42.646;23.292;2024-01-06T01:39:34;93238.38;;;6.13;80.21
7586;BME280;12459;42.646;23.292;2024-01-06T01:54:36;93160.19;;;5.29;80.18
7586;BME280;12459;42.646;23.292;2024-01-06T02:09:38;93478.75;;;7.97;79.25
7586;BME280;12459;42.646;23.292;2024-01-06T02:24:40;93102.09;;;5.52;82.07
7586;BME280;12459;42.646;23.292;2024-01-06T02:39:42;92983.38;;;5.28;80.49
7586;BME280;12459;42.646;23.292;2024-01-06T02:54:44;93250.25;;;7.07;84.85
7586;BME280;12459;42.646;23.292;2024-01-06T03:09:46;93419.44;;;8.30;84.80
7586;BME280;12459;42.646;23.292;2024-01-06T03:24:48;93359.25;;;7.63;84.89
7586;BME280;12459;42.646;23.292;2024-01-06T03:39:50;93367.16;;;7.85;86.90
7586;BME280;12459;42.646;23.292;2024-01-06T03:54:52;92916.34;;;4.60;85.63
7586;BME280;12459;42.646;23.292;2024-01-06T04:09:54;92965.63;;;4.61;85.91
7586;BME280;12459;42.646;23.292;2024-01-06T04:24:56;93405.16;;;7.99;85.22
7586;BME280;12459;42.646;23.292;2024-01-06T04:39:57;92983.44;;;4.71;83.35
7586;BME280;12459;42.646;23.292;2024-01-06T04:54:59;93424.13;;;8.16;84.78
7586;BME280;12459;42.646;23.292;2024-01-06T05:10:03;93368.47;;;7.48;87.25
7586;BME280;12459;42.646;23.292;2024-01-06T05:25:05;93337.63;;;7.47;85.22
7586;BME280;12459;42.646;23.292;2024-01-06T05:40:07;93397.78;;;7.52;86.96
7586;BME280;12459;42.646;23.292;2024-01-06T05:55:09;93261.06;;;6.67;87.76
7586;BME280;12459;42.646;23.292;2024-01-06T06:10:12;93176.88;;;5.61;87.83
7586;BME280;12459;42.646;23.292;2024-01-06T06:25:14;93321.50;;;6.85;88.96
7586;BME280;12459;42.646;23.292;2024-01-06T06:40:16;93043.34;;;4.72;87.03
7586;BME280;12459;42.646;23.292;2024-01-06T06:55:18;93355.16;;;7.48;88.58
7586;BME280;12459;42.646;23.292;2024-01-06T07:10:20;92800.88;;;3.95;89.22
7586;BME280;12459;42.646;23.292;2024-01-06T07:25:21;92960.69;;;4.63;90.29
7586;BME280;12459;42.646;23.292;2024-01-06T07:40:23;93401.16;;;8.36;87.68
7586;BME280;12459;42.646;23.292;2024-01-06T07:55:27;93158.41;;;7.29;86.57
7586;BME280;12459;42.646;23.292;2024-01-06T08:10:30;93121.41;;;7.38;87.42
7586;BME280;12459;42.646;23.292;2024-01-06T08:25:33;92976.59;;;6.69;83.03
7586;BME280;12459;42.646;23.292;2024-01-06T08:40:35;93358.66;;;9.65;76.47
7586;BME280;12459;42.646;23.292;2024-01-06T08:55:37;93215.09;;;9.28;79.56
7586;BME280;12459;42.646;23.292;2024-01-06T09:10:39;93175.22;;;8.83;80.10
7586;BME280;12459;42.646;23.292;2024-01-06T09:25:40;92942.69;;;7.52;82.07
7586;BME280;12459;42.646;23.292;2024-01-06T09:40:44;93163.47;;;9.31;79.97
7586;BME280;12459;42.646;23.292;2024-01-06T09:55:49;93030.31;;;8.49;80.41
7586;BME280;12459;42.646;23.292;2024-01-06T10:10:53;93029.84;;;9.27;78.65
7586;BME280;12459;42.646;23.292;2024-01-06T10:25:55;93109.34;;;9.74;79.57
7586;BME280;12459;42.646;23.292;2024-01-06T10:41:01;92968.34;;;9.08;79.48
7586;BME280;12459;42.646;23.292;2024-01-06T10:56:09;92968.78;;;9.26;75.81
7586;BME280;12459;42.646;23.292;2024-01-06T11:11:20;92614.06;;;7.52;73.87
7586;BME280;12459;42.646;23.292;2024-01-06T11:26:22;93146.22;;;11.41;73.39
7586;BME280;12459;42.646;23.292;2024-01-06T11:41:50;93074.94;;;11.72;69.53
7586;BME280;12459;42.646;23.292;2024-01-06T11:56:52;92526.78;;;7.76;70.15
7586;BME280;12459;42.646;23.292;2024-01-06T12:12:05;93031.28;;;11.56;70.88
7586;BME280;12459;42.646;23.292;2024-01-06T12:27:09;92991.47;;;11.22;71.80
7586;BME280;12459;42.646;23.292;2024-01-06T12:42:17;92975.84;;;10.71;72.87
7586;BME280;12459;42.646;23.292;2024-01-06T12:57:19;92991.41;;;11.70;70.81
7586;BME280;12459;42.646;23.292;2024-01-06T13:12:21;92863.88;;;11.08;70.41
7586;BME280;12459;42.646;23.292;2024-01-06T13:27:26;93022.50;;;11.84;71.73
7586;BME280;12459;42.646;23.292;2024-01-06T13:42:30;92820.25;;;10.13;76.25
7586;BME280;12459;42.646;23.292;2024-01-06T13:57:32;92929.44;;;9.86;86.03
7586;BME280;12459;42.646;23.292;2024-01-06T14:12:34;92480.34;;;6.90;85.52
7586;BME280;12459;42.646;23.292;2024-01-06T14:27:36;92833.59;;;8.85;85.60
7586;BME280;12459;42.646;23.292;2024-01-06T14:42:38;92616.06;;;7.21;86.86
7586;BME280;12459;42.646;23.292;2024-01-06T14:57:40;92698.31;;;7.92;87.42
7586;BME280;12459;42.646;23.292;2024-01-06T15:12:42;92289.81;;;4.68;88.42
7586;BME280;12459;42.646;23.292;2024-01-06T15:27:44;92744.81;;;7.41;91.10
7586;BME280;12459;42.646;23.292;2024-01-06T15:42:46;92581.50;;;6.67;91.72
7586;BME280;12459;42.646;23.292;2024-01-06T15:57:47;92794.06;;;8.10;89.78
7586;BME280;12459;42.646;23.292;2024-01-06T16:12:49;92745.56;;;7.68;90.64
7586;BME280;12459;42.646;23.292;2024-01-06T16:27:52;92304.22;;;4.67;91.50
7586;BME280;12459;42.646;23.292;2024-01-06T16:42:54;92646.16;;;7.68;89.71
7586;BME280;12459;42.646;23.292;2024-01-06T16:57:56;92686.66;;;7.83;90.78
7586;BME280;12459;42.646;23.292;2024-01-06T17:13:01;92451.69;;;6.98;87.40
7586;BME280;12459;42.646;23.292;2024-01-06T17:28:03;92515.50;;;7.68;84.81
7586;BME280;12459;42.646;23.292;2024-01-06T17:43:06;92876.19;;;9.36;89.51
7586;BME280;12459;42.646;23.292;2024-01-06T17:58:08;92701.13;;;8.05;92.39
7586;BME280;12459;42.646;23.292;2024-01-06T18:13:10;92563.72;;;7.34;92.48
7586;BME280;12459;42.646;23.292;2024-01-06T18:28:12;92536.81;;;7.48;93.02
7586;BME280;12459;42.646;23.292;2024-01-06T18:43:14;92637.88;;;7.62;95.54
7586;BME280;12459;42.646;23.292;2024-01-06T18:58:16;92580.19;;;7.29;96.67
7586;BME280;12459;42.646;23.292;2024-01-06T19:13:18;92436.88;;;6.00;97.13
7586;BME280;12459;42.646;23.292;2024-01-06T19:28:19;92591.09;;;7.58;98.34
7586;BME280;12459;42.646;23.292;2024-01-06T19:43:22;92525.47;;;7.21;100.00
7586;BME280;12459;42.646;23.292;2024-01-06T19:58:24;92328.13;;;6.32;97.16
7586;BME280;12459;42.646;23.292;2024-01-06T20:13:29;92449.03;;;6.75;99.42
7586;BME280;12459;42.646;23.292;2024-01-06T20:28:31;92524.19;;;7.52;100.00
7586;BME280;12459;42.646;23.292;2024-01-06T20:43:33;92283.31;;;6.07;99.47
7586;BME280;12459;42.646;23.292;2024-01-06T20:58:35;92414.53;;;7.11;100.00
7586;BME280;12459;42.646;23.292;2024-01-06T21:13:36;92417.56;;;7.52;96.65
7586;BME280;12459;42.646;23.292;2024-01-06T21:28:38;92098.03;;;5.61;97.10
7586;BME280;12459;42.646;23.292;2024-01-06T21:43:40;92140.91;;;5.40;99.99
7586;BME280;12459;42.646;23.292;2024-01-06T21:58:42;91863.06;;;4.04;99.35
7586;BME280;12459;42.646;23.292;2024-01-06T22:13:44;92311.38;;;6.55;100.00
7586;BME280;12459;42.646;23.292;2024-01-06T22:28:46;92320.31;;;7.04;100.00
7586;BME280;12459;42.646;23.292;2024-01-06T22:43:47;92229.97;;;6.58;100.00
7586;BME280;12459;42.646;23.292;2024-01-06T22:58:49;91853.56;;;4.30;100.00
7586;BME280;12459;42.646;23.292;2024-01-06T23:13:51;91973.91;;;5.02;100.00
7586;BME280;12459;42.646;23.292;2024-01-06T23:28:53;92308.06;;;7.63;100.00
7586;BME280;12459;42.646;23.292;2024-01-06T23:43:54;91988.25;;;5.84;100.00
7586;BME280;12459;42.646;23.292;2024-01-06T23:58:56;92054.34;;;6.22;100.00
